KMAN Airport (Nampa Muni) Information

FAA: MAN - ICAO: KMAN

KMAN Airport Location

State Idaho
County Canyon
City Nampa
KMAN Airport is 0 miles east of Nampa, ID.
Latitude 43-34-52.8280N
Longitude 116-31-23.0270W
Elevation 2,537ft

KMAN Airport METARs

METAR KMAN 060715Z AUTO 00000KT 10SM CLR 19/12 A2980 RMK A01
Altimeter 29.80"
Temperature 19.0°C (66.2°F)
Wind 0° at 0KT
Clouds Skies are clear.
Visibility 10.0mi
Time observed: 2022-07-06T07:15:00Z

KMAN Airport Details

Status Operational
Activation April 1946
Ownership Public
Usage Public
Chart SALT LAKE CITY
ATC on-site No
Beacon schedule sunset-sunrise
Beacon color clear green

KMAN Airport Contacts

Owner CITY OF NAMPA
Owner address 411 THIRD ST, SOUTH, NAMPA, ID 83651
Owner phone 208-468-5401
Manager JIM DESMOND
Manager address 2773 N HAVEN, EAGLE, ID 83616
Manager phone 208-249-0571

KMAN Airport (Nampa Muni) Radio Frequencies

KMAN (Airport) Radio Frequencies

UNICOM 122.7
Common traffic advisory frequency (CTAF) 122.7